Dundalk Sparrows Point, Maryland
Current Conditions -  °F | °C
As of 4:30 AM on Thursday 18 Dec 2014 (Local Time) from KMTN Reporting Station
Overcast Overcast  
Wind Chill: 30°   Ceiling: 4700
Heat Index: 37°   Visibility: 10mi
Dew Point: 25°   Wind: 12mph
Humidity: 60%   Direction: 270°W
Pressure: 30.1"   Gusts: NA
Location:  39.2639°N, 76.497°W
Report Text: KMTN 180930Z AUTO 27010KT 10SM OVC047 03/M04 A3010 RMK AO2
Loading
Personal Weather Stations






























Interactive Weather Map New forecast layout! Learn more

10-Day Weather Forecast

Advertisements
Track Severe Weather on mobile